KCFJ

Crawfordsville Municipal Airport

Crawfordsville, Indiana, USA
METAR KCFJ 230135Z AUTO 23004KT 10SM CLR 06/05 A3011 RMK AO2 T00620052
Observed Flight Rules
Oct-23 @ 01:35 UTC (17 minutes ago) Visual Flight Rules
Wind Visibility Clouds
230° at 4 knots 10 miles
  • Clear skies
Temperatures Readings
Current 6°C / 43°F
Dewpoint 5°C / 41°F
Humidity 93%
Altimeter 30.11" Hg
Pressure 1020 hPa
Elevation 244
METAR KCFJ 230135Z AUTO 23004KT 10SM CLR 06/05 A3011 RMK AO2 T00620052
Observed Flight Rules
Oct-23 @ 01:35 UTC
(17 minutes ago)
VFR
Wind Visibility
230° at 4 knots 10 miles
Clouds
  • Clear skies
Temperature Dewpoint
6°C / 43°F 5°C / 41°F
Humidity Altimeter Pressure
93% 30.11" Hg 1020 hPa